sensor_id;sensor_type;location;lat;lon;timestamp;temperature;humidity
7496;DHT22;3789;47.064;15.482;2024-02-26T00:00:36;5.60;99.90
7496;DHT22;3789;47.064;15.482;2024-02-26T00:03:05;5.40;99.90
7496;DHT22;3789;47.064;15.482;2024-02-26T00:05:35;5.40;99.90
7496;DHT22;3789;47.064;15.482;2024-02-26T00:08:06;5.60;99.90
7496;DHT22;3789;47.064;15.482;2024-02-26T00:10:34;5.40;99.90
7496;DHT22;3789;47.064;15.482;2024-02-26T00:13:03;5.30;99.90
7496;DHT22;3789;47.064;15.482;2024-02-26T00:15:31;5.30;99.90
7496;DHT22;3789;47.064;15.482;2024-02-26T00:17:59;5.20;99.90
7496;DHT22;3789;47.064;15.482;2024-02-26T00:20:28;5.20;99.90
7496;DHT22;3789;47.064;15.482;2024-02-26T00:22:59;5.20;99.90
7496;DHT22;3789;47.064;15.482;2024-02-26T00:25:29;5.20;99.90
7496;DHT22;3789;47.064;15.482;2024-02-26T00:27:57;5.20;99.90
7496;DHT22;3789;47.064;15.482;2024-02-26T00:30:27;5.20;99.90
7496;DHT22;3789;47.064;15.482;2024-02-26T00:32:56;5.00;99.90
7496;DHT22;3789;47.064;15.482;2024-02-26T00:35:25;4.80;99.90
7496;DHT22;3789;47.064;15.482;2024-02-26T00:38:01;4.60;99.90
7496;DHT22;3789;47.064;15.482;2024-02-26T00:40:33;4.40;99.90
7496;DHT22;3789;47.064;15.482;2024-02-26T00:43:03;4.50;99.90
7496;DHT22;3789;47.064;15.482;2024-02-26T00:45:32;4.50;99.90
7496;DHT22;3789;47.064;15.482;2024-02-26T00:48:08;4.40;99.90
7496;DHT22;3789;47.064;15.482;2024-02-26T00:50:40;4.40;99.90
7496;DHT22;3789;47.064;15.482;2024-02-26T00:53:08;4.30;99.90
7496;DHT22;3789;47.064;15.482;2024-02-26T00:55:37;4.40;99.90
7496;DHT22;3789;47.064;15.482;2024-02-26T00:58:06;4.50;99.90
7496;DHT22;3789;47.064;15.482;2024-02-26T01:00:35;4.60;99.90
7496;DHT22;3789;47.064;15.482;2024-02-26T01:03:05;4.80;99.90
7496;DHT22;3789;47.064;15.482;2024-02-26T01:08:50;4.60;99.90
7496;DHT22;3789;47.064;15.482;2024-02-26T01:11:19;4.50;99.90
7496;DHT22;3789;47.064;15.482;2024-02-26T01:13:47;4.70;99.90
7496;DHT22;3789;47.064;15.482;2024-02-26T01:16:27;4.50;99.90
7496;DHT22;3789;47.064;15.482;2024-02-26T01:19:00;4.50;99.90
7496;DHT22;3789;47.064;15.482;2024-02-26T01:21:30;4.50;99.90
7496;DHT22;3789;47.064;15.482;2024-02-26T01:24:07;4.50;99.90
7496;DHT22;3789;47.064;15.482;2024-02-26T01:26:37;4.70;99.90
7496;DHT22;3789;47.064;15.482;2024-02-26T01:29:06;4.70;99.90
7496;DHT22;3789;47.064;15.482;2024-02-26T01:31:37;4.60;99.90
7496;DHT22;3789;47.064;15.482;2024-02-26T01:34:10;4.50;99.90
7496;DHT22;3789;47.064;15.482;2024-02-26T01:36:40;4.30;99.90
7496;DHT22;3789;47.064;15.482;2024-02-26T01:39:11;4.20;99.90
7496;DHT22;3789;47.064;15.482;2024-02-26T01:41:42;4.20;99.90
7496;DHT22;3789;47.064;15.482;2024-02-26T01:44:12;4.30;99.90
7496;DHT22;3789;47.064;15.482;2024-02-26T01:46:44;4.20;99.90
7496;DHT22;3789;47.064;15.482;2024-02-26T01:49:15;4.00;99.90
7496;DHT22;3789;47.064;15.482;2024-02-26T01:51:45;3.90;99.90
7496;DHT22;3789;47.064;15.482;2024-02-26T01:54:19;3.90;99.90
7496;DHT22;3789;47.064;15.482;2024-02-26T01:56:50;3.80;99.90
7496;DHT22;3789;47.064;15.482;2024-02-26T01:59:24;3.90;99.90
7496;DHT22;3789;47.064;15.482;2024-02-26T02:01:57;3.80;99.90
7496;DHT22;3789;47.064;15.482;2024-02-26T02:04:30;3.80;99.90
7496;DHT22;3789;47.064;15.482;2024-02-26T02:07:00;4.20;99.90
7496;DHT22;3789;47.064;15.482;2024-02-26T02:09:29;4.50;99.90
7496;DHT22;3789;47.064;15.482;2024-02-26T02:12:00;4.50;99.90
7496;DHT22;3789;47.064;15.482;2024-02-26T02:14:32;4.30;99.90
7496;DHT22;3789;47.064;15.482;2024-02-26T02:16:59;4.30;99.90
7496;DHT22;3789;47.064;15.482;2024-02-26T02:19:27;4.10;99.90
7496;DHT22;3789;47.064;15.482;2024-02-26T02:21:56;4.00;99.90
7496;DHT22;3789;47.064;15.482;2024-02-26T02:24:24;4.00;99.90
7496;DHT22;3789;47.064;15.482;2024-02-26T02:26:53;3.90;99.90
7496;DHT22;3789;47.064;15.482;2024-02-26T02:29:21;3.80;99.90
7496;DHT22;3789;47.064;15.482;2024-02-26T02:31:50;3.90;99.90
7496;DHT22;3789;47.064;15.482;2024-02-26T02:34:21;3.70;99.90
7496;DHT22;3789;47.064;15.482;2024-02-26T02:36:54;3.80;99.90
7496;DHT22;3789;47.064;15.482;2024-02-26T02:39:26;4.00;99.90
7496;DHT22;3789;47.064;15.482;2024-02-26T02:41:54;4.10;99.90
7496;DHT22;3789;47.064;15.482;2024-02-26T02:44:30;4.20;99.90
7496;DHT22;3789;47.064;15.482;2024-02-26T02:47:00;4.20;99.90
7496;DHT22;3789;47.064;15.482;2024-02-26T02:49:31;4.30;99.90
7496;DHT22;3789;47.064;15.482;2024-02-26T02:52:01;4.50;99.90
7496;DHT22;3789;47.064;15.482;2024-02-26T02:54:29;4.50;99.90
7496;DHT22;3789;47.064;15.482;2024-02-26T02:56:58;4.40;99.90
7496;DHT22;3789;47.064;15.482;2024-02-26T02:59:27;4.40;99.90
7496;DHT22;3789;47.064;15.482;2024-02-26T03:01:56;4.30;99.90
7496;DHT22;3789;47.064;15.482;2024-02-26T03:04:24;4.30;99.90
7496;DHT22;3789;47.064;15.482;2024-02-26T03:06:56;4.20;99.90
7496;DHT22;3789;47.064;15.482;2024-02-26T03:09:26;4.10;99.90
7496;DHT22;3789;47.064;15.482;2024-02-26T03:11:53;4.10;99.90
7496;DHT22;3789;47.064;15.482;2024-02-26T03:14:22;4.10;99.90
7496;DHT22;3789;47.064;15.482;2024-02-26T03:16:54;4.00;99.90
7496;DHT22;3789;47.064;15.482;2024-02-26T03:19:24;3.90;99.90
7496;DHT22;3789;47.064;15.482;2024-02-26T03:21:59;3.90;99.90
7496;DHT22;3789;47.064;15.482;2024-02-26T03:24:28;3.90;99.90
7496;DHT22;3789;47.064;15.482;2024-02-26T03:27:05;3.80;99.90
7496;DHT22;3789;47.064;15.482;2024-02-26T03:29:40;3.70;99.90
7496;DHT22;3789;47.064;15.482;2024-02-26T03:32:13;3.70;99.90
7496;DHT22;3789;47.064;15.482;2024-02-26T03:34:41;3.70;99.90
7496;DHT22;3789;47.064;15.482;2024-02-26T03:37:10;3.80;99.90
7496;DHT22;3789;47.064;15.482;2024-02-26T03:39:46;3.80;99.90
7496;DHT22;3789;47.064;15.482;2024-02-26T03:42:23;3.90;99.90
7496;DHT22;3789;47.064;15.482;2024-02-26T03:44:53;3.80;99.90
7496;DHT22;3789;47.064;15.482;2024-02-26T03:47:21;3.80;99.90
7496;DHT22;3789;47.064;15.482;2024-02-26T03:49:49;3.80;99.90
7496;DHT22;3789;47.064;15.482;2024-02-26T03:52:17;3.80;99.90
7496;DHT22;3789;47.064;15.482;2024-02-26T03:54:47;4.00;99.90
7496;DHT22;3789;47.064;15.482;2024-02-26T03:57:16;4.10;99.90
7496;DHT22;3789;47.064;15.482;2024-02-26T03:59:48;4.10;99.90
7496;DHT22;3789;47.064;15.482;2024-02-26T04:02:18;4.00;99.90
7496;DHT22;3789;47.064;15.482;2024-02-26T04:04:52;4.00;99.90
7496;DHT22;3789;47.064;15.482;2024-02-26T04:07:22;4.10;99.90
7496;DHT22;3789;47.064;15.482;2024-02-26T04:09:53;4.20;99.90
7496;DHT22;3789;47.064;15.482;2024-02-26T04:12:21;4.20;99.90
7496;DHT22;3789;47.064;15.482;2024-02-26T04:14:58;4.20;99.90
7496;DHT22;3789;47.064;15.482;2024-02-26T04:17:37;4.30;99.90
7496;DHT22;3789;47.064;15.482;2024-02-26T04:20:15;4.30;99.90
7496;DHT22;3789;47.064;15.482;2024-02-26T04:22:47;4.00;99.90
7496;DHT22;3789;47.064;15.482;2024-02-26T04:25:16;3.90;99.90
7496;DHT22;3789;47.064;15.482;2024-02-26T04:27:54;3.90;99.90
7496;DHT22;3789;47.064;15.482;2024-02-26T04:30:22;3.80;99.90
7496;DHT22;3789;47.064;15.482;2024-02-26T04:32:54;3.70;99.90
7496;DHT22;3789;47.064;15.482;2024-02-26T04:35:35;3.80;99.90
7496;DHT22;3789;47.064;15.482;2024-02-26T04:38:04;3.70;99.90
7496;DHT22;3789;47.064;15.482;2024-02-26T04:40:39;3.70;99.90
7496;DHT22;3789;47.064;15.482;2024-02-26T04:43:11;3.80;99.90
7496;DHT22;3789;47.064;15.482;2024-02-26T04:45:48;3.80;99.90
7496;DHT22;3789;47.064;15.482;2024-02-26T04:48:21;3.70;99.90
7496;DHT22;3789;47.064;15.482;2024-02-26T04:50:48;3.70;99.90
7496;DHT22;3789;47.064;15.482;2024-02-26T04:53:25;3.70;99.90
7496;DHT22;3789;47.064;15.482;2024-02-26T04:55:54;3.60;99.90
7496;DHT22;3789;47.064;15.482;2024-02-26T04:58:23;3.50;99.90
7496;DHT22;3789;47.064;15.482;2024-02-26T05:00:51;3.50;99.90
7496;DHT22;3789;47.064;15.482;2024-02-26T05:03:22;3.40;99.90
7496;DHT22;3789;47.064;15.482;2024-02-26T05:05:50;3.40;99.90
7496;DHT22;3789;47.064;15.482;2024-02-26T05:08:19;3.30;99.90
7496;DHT22;3789;47.064;15.482;2024-02-26T05:10:50;3.30;99.90
7496;DHT22;3789;47.064;15.482;2024-02-26T05:13:18;3.30;99.90
7496;DHT22;3789;47.064;15.482;2024-02-26T05:15:45;3.20;99.90
7496;DHT22;3789;47.064;15.482;2024-02-26T05:18:18;3.30;99.90
7496;DHT22;3789;47.064;15.482;2024-02-26T05:20:54;3.40;99.90
7496;DHT22;3789;47.064;15.482;2024-02-26T05:23:24;3.70;99.90
7496;DHT22;3789;47.064;15.482;2024-02-26T05:25:54;3.70;99.90
7496;DHT22;3789;47.064;15.482;2024-02-26T05:28:29;3.60;99.90
7496;DHT22;3789;47.064;15.482;2024-02-26T05:30:58;3.50;99.90
7496;DHT22;3789;47.064;15.482;2024-02-26T05:33:27;3.50;99.90
7496;DHT22;3789;47.064;15.482;2024-02-26T05:35:56;3.50;99.90
7496;DHT22;3789;47.064;15.482;2024-02-26T05:38:24;3.30;99.90
7496;DHT22;3789;47.064;15.482;2024-02-26T05:40:55;3.30;99.90
7496;DHT22;3789;47.064;15.482;2024-02-26T05:43:28;3.30;99.90
7496;DHT22;3789;47.064;15.482;2024-02-26T05:45:59;3.30;99.90
7496;DHT22;3789;47.064;15.482;2024-02-26T05:48:26;3.30;99.90
7496;DHT22;3789;47.064;15.482;2024-02-26T05:50:56;3.40;99.90
7496;DHT22;3789;47.064;15.482;2024-02-26T05:53:25;3.40;99.90
7496;DHT22;3789;47.064;15.482;2024-02-26T05:55:56;3.50;99.90
7496;DHT22;3789;47.064;15.482;2024-02-26T05:58:23;3.50;99.90
7496;DHT22;3789;47.064;15.482;2024-02-26T06:00:52;3.50;99.90
7496;DHT22;3789;47.064;15.482;2024-02-26T06:03:20;3.70;99.90
7496;DHT22;3789;47.064;15.482;2024-02-26T06:05:50;4.10;99.90
7496;DHT22;3789;47.064;15.482;2024-02-26T06:08:18;4.20;99.90
7496;DHT22;3789;47.064;15.482;2024-02-26T06:10:47;4.10;99.90
7496;DHT22;3789;47.064;15.482;2024-02-26T06:13:18;3.90;99.90
7496;DHT22;3789;47.064;15.482;2024-02-26T06:15:53;4.00;99.90
7496;DHT22;3789;47.064;15.482;2024-02-26T06:18:25;4.20;99.90
7496;DHT22;3789;47.064;15.482;2024-02-26T06:21:00;4.40;99.90
7496;DHT22;3789;47.064;15.482;2024-02-26T06:23:30;5.00;99.90
7496;DHT22;3789;47.064;15.482;2024-02-26T06:26:01;5.40;99.90
7496;DHT22;3789;47.064;15.482;2024-02-26T06:28:29;6.00;99.90
7496;DHT22;3789;47.064;15.482;2024-02-26T06:31:01;6.90;99.90
7496;DHT22;3789;47.064;15.482;2024-02-26T06:33:31;7.90;99.90
7496;DHT22;3789;47.064;15.482;2024-02-26T06:36:02;8.20;99.90
7496;DHT22;3789;47.064;15.482;2024-02-26T06:38:30;8.90;99.90
7496;DHT22;3789;47.064;15.482;2024-02-26T06:41:01;9.40;99.90
7496;DHT22;3789;47.064;15.482;2024-02-26T06:43:34;10.30;99.90
7496;DHT22;3789;47.064;15.482;2024-02-26T06:46:02;10.80;99.90
7496;DHT22;3789;47.064;15.482;2024-02-26T06:48:32;10.70;99.90
7496;DHT22;3789;47.064;15.482;2024-02-26T06:51:08;9.70;99.90
7496;DHT22;3789;47.064;15.482;2024-02-26T06:53:37;9.70;99.90
7496;DHT22;3789;47.064;15.482;2024-02-26T06:56:07;9.20;99.90
7496;DHT22;3789;47.064;15.482;2024-02-26T06:58:37;8.90;99.90
7496;DHT22;3789;47.064;15.482;2024-02-26T07:01:14;8.90;99.90
7496;DHT22;3789;47.064;15.482;2024-02-26T07:03:49;9.20;99.90
7496;DHT22;3789;47.064;15.482;2024-02-26T07:06:18;9.30;99.90
7496;DHT22;3789;47.064;15.482;2024-02-26T07:08:47;9.80;99.90
7496;DHT22;3789;47.064;15.482;2024-02-26T07:11:17;10.50;99.90
7496;DHT22;3789;47.064;15.482;2024-02-26T07:13:48;11.30;99.90
7496;DHT22;3789;47.064;15.482;2024-02-26T07:16:21;12.60;99.90
7496;DHT22;3789;47.064;15.482;2024-02-26T07:18:48;14.20;99.90
7496;DHT22;3789;47.064;15.482;2024-02-26T07:21:17;14.90;99.40
7496;DHT22;3789;47.064;15.482;2024-02-26T07:23:46;15.40;97.40
7496;DHT22;3789;47.064;15.482;2024-02-26T07:26:13;15.50;97.20
7496;DHT22;3789;47.064;15.482;2024-02-26T07:28:43;16.10;96.30
7496;DHT22;3789;47.064;15.482;2024-02-26T07:31:13;16.30;95.30
7496;DHT22;3789;47.064;15.482;2024-02-26T07:33:40;16.10;95.40
7496;DHT22;3789;47.064;15.482;2024-02-26T07:36:13;16.20;94.80
7496;DHT22;3789;47.064;15.482;2024-02-26T07:38:41;16.40;94.40
7496;DHT22;3789;47.064;15.482;2024-02-26T07:41:25;16.70;94.80
7496;DHT22;3789;47.064;15.482;2024-02-26T07:43:55;17.40;94.30
7496;DHT22;3789;47.064;15.482;2024-02-26T07:46:25;15.60;95.80
7496;DHT22;3789;47.064;15.482;2024-02-26T07:49:01;15.90;94.70
7496;DHT22;3789;47.064;15.482;2024-02-26T07:51:39;15.40;95.70
7496;DHT22;3789;47.064;15.482;2024-02-26T07:54:12;16.00;96.40
7496;DHT22;3789;47.064;15.482;2024-02-26T07:56:42;16.90;93.90
7496;DHT22;3789;47.064;15.482;2024-02-26T07:59:12;15.80;94.70
7496;DHT22;3789;47.064;15.482;2024-02-26T08:01:42;14.70;95.30
7496;DHT22;3789;47.064;15.482;2024-02-26T08:04:17;14.90;96.40
7496;DHT22;3789;47.064;15.482;2024-02-26T08:06:47;14.90;95.40
7496;DHT22;3789;47.064;15.482;2024-02-26T08:09:16;13.40;96.00
7496;DHT22;3789;47.064;15.482;2024-02-26T08:11:43;12.20;97.70
7496;DHT22;3789;47.064;15.482;2024-02-26T08:14:15;10.90;99.60
7496;DHT22;3789;47.064;15.482;2024-02-26T08:16:46;10.80;99.90
7496;DHT22;3789;47.064;15.482;2024-02-26T08:19:14;10.10;99.90
7496;DHT22;3789;47.064;15.482;2024-02-26T08:21:44;9.20;99.90
7496;DHT22;3789;47.064;15.482;2024-02-26T08:24:12;8.90;99.90
7496;DHT22;3789;47.064;15.482;2024-02-26T08:26:41;9.00;99.90
7496;DHT22;3789;47.064;15.482;2024-02-26T08:29:10;8.80;99.90
7496;DHT22;3789;47.064;15.482;2024-02-26T08:31:40;8.50;99.90
7496;DHT22;3789;47.064;15.482;2024-02-26T08:34:12;8.40;99.90
7496;DHT22;3789;47.064;15.482;2024-02-26T08:36:41;8.20;99.90
7496;DHT22;3789;47.064;15.482;2024-02-26T08:39:14;8.20;99.90
7496;DHT22;3789;47.064;15.482;2024-02-26T08:41:47;8.10;99.90
7496;DHT22;3789;47.064;15.482;2024-02-26T08:44:15;8.20;99.90
7496;DHT22;3789;47.064;15.482;2024-02-26T08:46:44;8.30;99.90
7496;DHT22;3789;47.064;15.482;2024-02-26T08:49:24;8.40;99.90
7496;DHT22;3789;47.064;15.482;2024-02-26T08:51:53;8.00;99.90
7496;DHT22;3789;47.064;15.482;2024-02-26T08:54:25;7.80;99.90
7496;DHT22;3789;47.064;15.482;2024-02-26T08:56:57;7.80;99.90
7496;DHT22;3789;47.064;15.482;2024-02-26T08:59:24;8.00;99.90
7496;DHT22;3789;47.064;15.482;2024-02-26T09:01:56;8.30;99.90
7496;DHT22;3789;47.064;15.482;2024-02-26T09:04:27;8.50;99.90
7496;DHT22;3789;47.064;15.482;2024-02-26T09:07:04;8.50;99.90
7496;DHT22;3789;47.064;15.482;2024-02-26T09:09:34;8.40;99.90
7496;DHT22;3789;47.064;15.482;2024-02-26T09:12:03;8.40;99.90
7496;DHT22;3789;47.064;15.482;2024-02-26T09:14:33;8.20;99.90
7496;DHT22;3789;47.064;15.482;2024-02-26T09:17:08;8.20;99.90
7496;DHT22;3789;47.064;15.482;2024-02-26T09:19:37;8.10;99.90
7496;DHT22;3789;47.064;15.482;2024-02-26T09:22:06;8.00;99.90
7496;DHT22;3789;47.064;15.482;2024-02-26T09:24:39;8.00;99.90
7496;DHT22;3789;47.064;15.482;2024-02-26T09:27:06;8.10;99.90
7496;DHT22;3789;47.064;15.482;2024-02-26T09:29:36;8.00;99.90
7496;DHT22;3789;47.064;15.482;2024-02-26T09:32:03;8.10;99.90
7496;DHT22;3789;47.064;15.482;2024-02-26T09:34:34;8.30;99.90
7496;DHT22;3789;47.064;15.482;2024-02-26T09:37:02;8.40;99.90
7496;DHT22;3789;47.064;15.482;2024-02-26T09:39:42;8.50;99.90
7496;DHT22;3789;47.064;15.482;2024-02-26T09:42:13;8.60;99.90
7496;DHT22;3789;47.064;15.482;2024-02-26T09:44:44;8.60;99.90
7496;DHT22;3789;47.064;15.482;2024-02-26T09:47:28;8.50;99.90
7496;DHT22;3789;47.064;15.482;2024-02-26T09:50:03;8.50;99.90
7496;DHT22;3789;47.064;15.482;2024-02-26T09:52:40;8.40;99.90
7496;DHT22;3789;47.064;15.482;2024-02-26T09:55:10;8.40;99.90
7496;DHT22;3789;47.064;15.482;2024-02-26T09:57:45;8.50;99.90
7496;DHT22;3789;47.064;15.482;2024-02-26T10:00:22;8.60;99.90
7496;DHT22;3789;47.064;15.482;2024-02-26T10:02:51;8.70;99.90
7496;DHT22;3789;47.064;15.482;2024-02-26T10:05:23;9.00;99.90
7496;DHT22;3789;47.064;15.482;2024-02-26T10:08:02;9.20;99.90
7496;DHT22;3789;47.064;15.482;2024-02-26T10:10:33;9.30;99.90
7496;DHT22;3789;47.064;15.482;2024-02-26T10:13:02;9.20;99.90
7496;DHT22;3789;47.064;15.482;2024-02-26T10:15:39;9.10;99.90
7496;DHT22;3789;47.064;15.482;2024-02-26T10:18:08;9.20;99.90
7496;DHT22;3789;47.064;15.482;2024-02-26T10:20:36;9.40;99.90
7496;DHT22;3789;47.064;15.482;2024-02-26T10:23:07;9.50;99.90
7496;DHT22;3789;47.064;15.482;2024-02-26T10:25:54;9.40;99.90
7496;DHT22;3789;47.064;15.482;2024-02-26T10:28:33;9.50;99.90
7496;DHT22;3789;47.064;15.482;2024-02-26T10:31:02;9.60;99.90
7496;DHT22;3789;47.064;15.482;2024-02-26T10:33:34;9.90;99.90
7496;DHT22;3789;47.064;15.482;2024-02-26T10:36:11;10.20;99.90
7496;DHT22;3789;47.064;15.482;2024-02-26T10:38:41;10.30;99.90
7496;DHT22;3789;47.064;15.482;2024-02-26T10:41:14;10.10;99.90
7496;DHT22;3789;47.064;15.482;2024-02-26T10:43:48;10.00;99.90
7496;DHT22;3789;47.064;15.482;2024-02-26T10:46:17;10.20;99.90
7496;DHT22;3789;47.064;15.482;2024-02-26T10:48:53;10.40;99.90
7496;DHT22;3789;47.064;15.482;2024-02-26T10:51:29;10.00;99.90
7496;DHT22;3789;47.064;15.482;2024-02-26T10:53:59;9.80;99.90
7496;DHT22;3789;47.064;15.482;2024-02-26T10:56:35;9.80;99.90
7496;DHT22;3789;47.064;15.482;2024-02-26T10:59:10;10.10;99.90
7496;DHT22;3789;47.064;15.482;2024-02-26T11:01:41;10.30;99.90
7496;DHT22;3789;47.064;15.482;2024-02-26T11:04:18;10.10;99.90
7496;DHT22;3789;47.064;15.482;2024-02-26T11:06:58;10.30;99.90
7496;DHT22;3789;47.064;15.482;2024-02-26T11:09:28;10.20;99.90
7496;DHT22;3789;47.064;15.482;2024-02-26T11:11:58;10.30;99.90
7496;DHT22;3789;47.064;15.482;2024-02-26T11:14:29;10.30;99.90
7496;DHT22;3789;47.064;15.482;2024-02-26T11:17:00;10.50;99.90
7496;DHT22;3789;47.064;15.482;2024-02-26T11:19:29;10.50;99.90
7496;DHT22;3789;47.064;15.482;2024-02-26T11:22:03;10.60;99.90
7496;DHT22;3789;47.064;15.482;2024-02-26T11:24:48;10.60;99.90
7496;DHT22;3789;47.064;15.482;2024-02-26T11:27:21;10.60;99.90
7496;DHT22;3789;47.064;15.482;2024-02-26T11:30:19;10.40;99.90
7496;DHT22;3789;47.064;15.482;2024-02-26T11:32:50;10.60;99.90
7496;DHT22;3789;47.064;15.482;2024-02-26T11:35:22;10.70;99.90
7496;DHT22;3789;47.064;15.482;2024-02-26T11:37:58;10.70;99.90
7496;DHT22;3789;47.064;15.482;2024-02-26T11:40:29;10.80;99.90
7496;DHT22;3789;47.064;15.482;2024-02-26T11:43:00;10.90;99.90
7496;DHT22;3789;47.064;15.482;2024-02-26T11:45:49;10.90;99.90
7496;DHT22;3789;47.064;15.482;2024-02-26T11:48:24;11.00;99.90
7496;DHT22;3789;47.064;15.482;2024-02-26T11:50:55;11.00;99.90
7496;DHT22;3789;47.064;15.482;2024-02-26T11:53:31;11.00;99.90
7496;DHT22;3789;47.064;15.482;2024-02-26T11:56:20;10.80;99.90
7496;DHT22;3789;47.064;15.482;2024-02-26T11:59:10;10.90;99.90
7496;DHT22;3789;47.064;15.482;2024-02-26T12:01:49;10.90;99.90
7496;DHT22;3789;47.064;15.482;2024-02-26T12:04:29;11.00;99.90
7496;DHT22;3789;47.064;15.482;2024-02-26T12:07:03;11.00;99.90
7496;DHT22;3789;47.064;15.482;2024-02-26T12:09:44;11.00;99.90
7496;DHT22;3789;47.064;15.482;2024-02-26T12:12:18;11.30;99.90
7496;DHT22;3789;47.064;15.482;2024-02-26T12:15:03;11.30;99.90
7496;DHT22;3789;47.064;15.482;2024-02-26T12:17:35;11.20;99.90
7496;DHT22;3789;47.064;15.482;2024-02-26T12:20:10;11.10;99.90
7496;DHT22;3789;47.064;15.482;2024-02-26T12:22:40;11.10;99.90
7496;DHT22;3789;47.064;15.482;2024-02-26T12:25:12;11.00;99.90
7496;DHT22;3789;47.064;15.482;2024-02-26T12:27:50;11.10;99.90
7496;DHT22;3789;47.064;15.482;2024-02-26T12:30:20;11.10;99.90
7496;DHT22;3789;47.064;15.482;2024-02-26T12:32:53;11.20;99.90
7496;DHT22;3789;47.064;15.482;2024-02-26T12:35:31;11.20;99.90
7496;DHT22;3789;47.064;15.482;2024-02-26T12:38:00;11.10;99.90
7496;DHT22;3789;47.064;15.482;2024-02-26T12:40:32;11.00;99.90
7496;DHT22;3789;47.064;15.482;2024-02-26T12:42:59;11.10;99.90
7496;DHT22;3789;47.064;15.482;2024-02-26T12:45:30;11.30;99.90
7496;DHT22;3789;47.064;15.482;2024-02-26T12:48:01;11.20;99.90
7496;DHT22;3789;47.064;15.482;2024-02-26T12:50:30;11.30;99.90
7496;DHT22;3789;47.064;15.482;2024-02-26T12:53:00;11.30;99.90
7496;DHT22;3789;47.064;15.482;2024-02-26T12:55:29;11.50;99.90
7496;DHT22;3789;47.064;15.482;2024-02-26T12:58:05;11.60;99.90
7496;DHT22;3789;47.064;15.482;2024-02-26T13:00:33;11.60;99.40
7496;DHT22;3789;47.064;15.482;2024-02-26T13:03:04;11.60;99.40
7496;DHT22;3789;47.064;15.482;2024-02-26T13:05:33;11.80;99.20
7496;DHT22;3789;47.064;15.482;2024-02-26T13:08:05;11.90;99.00
7496;DHT22;3789;47.064;15.482;2024-02-26T13:10:37;12.00;99.00
7496;DHT22;3789;47.064;15.482;2024-02-26T13:13:07;12.00;98.00
7496;DHT22;3789;47.064;15.482;2024-02-26T13:15:48;11.90;98.30
7496;DHT22;3789;47.064;15.482;2024-02-26T13:18:16;11.90;99.00
7496;DHT22;3789;47.064;15.482;2024-02-26T13:20:46;12.00;98.60
7496;DHT22;3789;47.064;15.482;2024-02-26T13:23:29;12.00;98.40
7496;DHT22;3789;47.064;15.482;2024-02-26T13:26:14;12.00;98.00
7496;DHT22;3789;47.064;15.482;2024-02-26T13:28:42;12.10;98.00
7496;DHT22;3789;47.064;15.482;2024-02-26T13:31:09;12.30;98.40
7496;DHT22;3789;47.064;15.482;2024-02-26T13:33:39;12.20;98.50
7496;DHT22;3789;47.064;15.482;2024-02-26T13:36:08;12.20;97.80
7496;DHT22;3789;47.064;15.482;2024-02-26T13:38:38;12.00;97.10
7496;DHT22;3789;47.064;15.482;2024-02-26T13:41:11;12.00;97.60
7496;DHT22;3789;47.064;15.482;2024-02-26T13:43:40;11.90;97.60
7496;DHT22;3789;47.064;15.482;2024-02-26T13:46:07;12.10;97.90
7496;DHT22;3789;47.064;15.482;2024-02-26T13:48:38;12.10;97.70
7496;DHT22;3789;47.064;15.482;2024-02-26T13:51:07;12.10;97.50
7496;DHT22;3789;47.064;15.482;2024-02-26T13:53:35;12.10;97.50
7496;DHT22;3789;47.064;15.482;2024-02-26T13:56:10;11.90;97.80
7496;DHT22;3789;47.064;15.482;2024-02-26T13:58:40;11.80;98.10
7496;DHT22;3789;47.064;15.482;2024-02-26T14:01:08;11.70;98.40
7496;DHT22;3789;47.064;15.482;2024-02-26T14:03:37;11.70;98.50
7496;DHT22;3789;47.064;15.482;2024-02-26T14:06:09;11.60;98.30
7496;DHT22;3789;47.064;15.482;2024-02-26T14:08:47;11.60;98.40
7496;DHT22;3789;47.064;15.482;2024-02-26T14:11:16;11.60;98.60
7496;DHT22;3789;47.064;15.482;2024-02-26T14:13:52;11.60;98.90
7496;DHT22;3789;47.064;15.482;2024-02-26T14:16:21;11.60;98.50
7496;DHT22;3789;47.064;15.482;2024-02-26T14:18:51;11.50;98.20
7496;DHT22;3789;47.064;15.482;2024-02-26T14:21:20;11.40;98.20
7496;DHT22;3789;47.064;15.482;2024-02-26T14:23:49;11.40;98.30
7496;DHT22;3789;47.064;15.482;2024-02-26T14:26:23;11.40;98.20
7496;DHT22;3789;47.064;15.482;2024-02-26T14:28:53;11.50;98.40
7496;DHT22;3789;47.064;15.482;2024-02-26T14:31:22;11.50;97.80
7496;DHT22;3789;47.064;15.482;2024-02-26T14:33:52;11.50;98.20
7496;DHT22;3789;47.064;15.482;2024-02-26T14:36:22;11.50;97.70
7496;DHT22;3789;47.064;15.482;2024-02-26T14:38:50;11.60;98.30
7496;DHT22;3789;47.064;15.482;2024-02-26T14:41:18;11.70;98.60
7496;DHT22;3789;47.064;15.482;2024-02-26T14:43:46;11.70;97.00
7496;DHT22;3789;47.064;15.482;2024-02-26T14:46:14;11.50;96.40
7496;DHT22;3789;47.064;15.482;2024-02-26T14:48:43;11.50;96.70
7496;DHT22;3789;47.064;15.482;2024-02-26T14:51:12;11.50;96.40
7496;DHT22;3789;47.064;15.482;2024-02-26T14:53:41;11.30;96.80
7496;DHT22;3789;47.064;15.482;2024-02-26T14:56:17;11.30;97.10
7496;DHT22;3789;47.064;15.482;2024-02-26T14:58:52;11.20;97.00
7496;DHT22;3789;47.064;15.482;2024-02-26T15:01:21;11.10;96.90
7496;DHT22;3789;47.064;15.482;2024-02-26T15:03:51;11.00;97.00
7496;DHT22;3789;47.064;15.482;2024-02-26T15:06:24;11.00;97.10
7496;DHT22;3789;47.064;15.482;2024-02-26T15:08:56;11.10;97.20
7496;DHT22;3789;47.064;15.482;2024-02-26T15:11:24;11.10;97.20
7496;DHT22;3789;47.064;15.482;2024-02-26T15:18:01;11.10;97.30
7496;DHT22;3789;47.064;15.482;2024-02-26T15:20:32;11.00;97.40
7496;DHT22;3789;47.064;15.482;2024-02-26T15:23:00;11.10;97.60
7496;DHT22;3789;47.064;15.482;2024-02-26T15:25:27;11.00;97.60
7496;DHT22;3789;47.064;15.482;2024-02-26T15:27:57;10.90;97.60
7496;DHT22;3789;47.064;15.482;2024-02-26T15:30:25;10.90;97.80
7496;DHT22;3789;47.064;15.482;2024-02-26T15:32:57;10.80;97.70
7496;DHT22;3789;47.064;15.482;2024-02-26T15:35:27;10.80;97.70
7496;DHT22;3789;47.064;15.482;2024-02-26T15:38:03;10.70;97.60
7496;DHT22;3789;47.064;15.482;2024-02-26T15:40:33;10.70;97.70
7496;DHT22;3789;47.064;15.482;2024-02-26T15:43:02;10.60;98.00
7496;DHT22;3789;47.064;15.482;2024-02-26T15:45:30;10.60;97.90
7496;DHT22;3789;47.064;15.482;2024-02-26T15:48:02;10.60;98.20
7496;DHT22;3789;47.064;15.482;2024-02-26T15:50:33;10.60;98.40
7496;DHT22;3789;47.064;15.482;2024-02-26T15:53:02;10.60;98.60
7496;DHT22;3789;47.064;15.482;2024-02-26T15:55:37;10.60;98.50
7496;DHT22;3789;47.064;15.482;2024-02-26T15:58:08;10.60;98.60
7496;DHT22;3789;47.064;15.482;2024-02-26T16:00:42;10.50;98.70
7496;DHT22;3789;47.064;15.482;2024-02-26T16:03:11;10.40;98.80
7496;DHT22;3789;47.064;15.482;2024-02-26T16:05:43;10.40;98.60
7496;DHT22;3789;47.064;15.482;2024-02-26T16:08:28;10.40;99.10
7496;DHT22;3789;47.064;15.482;2024-02-26T16:10:56;10.30;99.20
7496;DHT22;3789;47.064;15.482;2024-02-26T16:13:26;10.20;99.20
7496;DHT22;3789;47.064;15.482;2024-02-26T16:16:02;10.10;99.60
7496;DHT22;3789;47.064;15.482;2024-02-26T16:18:43;10.00;99.50
7496;DHT22;3789;47.064;15.482;2024-02-26T16:21:19;9.90;99.90
7496;DHT22;3789;47.064;15.482;2024-02-26T16:23:49;9.90;99.90
7496;DHT22;3789;47.064;15.482;2024-02-26T16:26:22;9.90;99.90
7496;DHT22;3789;47.064;15.482;2024-02-26T16:28:52;9.80;99.90